Montreal International (Mirabel) Airport

CYMX | YMX

Montreal , Quebec , Canada

Thursday, October 24th, 2019 | 00:53

Weather

CYMX 240400Z 24006KT 200V260 25SM BKN073 09/02 A2997 RMK AC6 SLP154

Charts

No Charts Available

Gates

52 Available

Runways

2 Available

Events

No events for this airport


New event